»·PEaware :: N5002T KSBA-KBUR

N5002T :: KSBA-KBUR

FLIGHT INFORMATION

Flight Status: Arrived
Operator: Privately registered:
United States
More flights under this callsign
Pilot: Hunter M. (19355)
Aircraft: CESSNA 172 SKYHAWK
(C172)
More flights by this aircraft type
Origin: KSBA Santa Barbara Mun
United States
Destination: KBUR Bob Hope-Burbank
United States
More flights between these airports :: More routes between these airports
Route: KWANG CMA CMA078 TOAKS
File this flight plan on PilotEdge
Remarks:
Altitude:
(Current/Filed)
5,000ft
Speed:
(Current/Filed)
118kts
Departed: 08-Jan-19 12:11 PM
Arrived: 08-Jan-19 12:57 PM
Distance/Time
Traveled:
74nm/0:46
Distance/Time
To Go:
Arrived

Flight Plot

Page will automatically refresh every two minutes.


Map Options




Map Legend


Flown Route
Filed Route
Departure Airport
Arrival Airport
Navaid (VOR, NDB)
Fix

Horizontal Profiles

Position Reports

Time Latitude Longitude Heading Altitude Ground
Speed
08-Jan-19 11:42 34.431523 -119.832617 355 13ft 0kts
08-Jan-19 11:43 34.431525 -119.832617 355 13ft 0kts
08-Jan-19 11:44 34.431528 -119.832618 355 13ft 0kts
08-Jan-19 11:45 34.431530 -119.832618 355 13ft 0kts
08-Jan-19 11:46 34.431532 -119.832618 355 13ft 0kts
08-Jan-19 11:47 34.431534 -119.832618 355 13ft 0kts
08-Jan-19 11:48 34.431536 -119.832618 355 13ft 0kts
08-Jan-19 11:49 34.431538 -119.832619 355 13ft 0kts
08-Jan-19 11:50 34.431540 -119.832619 355 13ft 0kts
08-Jan-19 11:51 34.431542 -119.832619 355 13ft 0kts
08-Jan-19 11:52 34.431544 -119.832619 355 13ft 0kts
08-Jan-19 11:53 34.431547 -119.832620 355 13ft 0kts
08-Jan-19 11:54 34.431549 -119.832620 355 13ft 0kts
08-Jan-19 11:55 34.431551 -119.832620 355 13ft 0kts
08-Jan-19 11:56 34.431553 -119.832620 355 13ft 0kts
08-Jan-19 11:57 34.431555 -119.832620 355 13ft 0kts
08-Jan-19 11:58 34.431557 -119.832621 355 13ft 0kts
08-Jan-19 11:59 34.431558 -119.832621 355 13ft 0kts
08-Jan-19 12:00 34.431559 -119.832621 355 13ft 0kts
08-Jan-19 12:01 34.431561 -119.832621 355 13ft 0kts
08-Jan-19 12:02 34.431564 -119.832621 355 13ft 0kts
08-Jan-19 12:03 34.431566 -119.832622 355 13ft 0kts
08-Jan-19 12:04 34.431639 -119.832646 332 13ft 2kts
08-Jan-19 12:05 34.432492 -119.833267 1 13ft 2kts
08-Jan-19 12:06 34.432292 -119.835027 245 13ft 2kts
08-Jan-19 12:07 34.430936 -119.839200 248 13ft 11kts
08-Jan-19 12:08 34.430713 -119.839691 241 13ft 0kts
08-Jan-19 12:09 34.430205 -119.840167 162 13ft 8kts
08-Jan-19 12:10 34.413094 -119.835647 163 546ft 81kts
08-Jan-19 12:11 34.389911 -119.829004 164 1283ft 87kts
08-Jan-19 12:12 34.366501 -119.820121 164 1976ft 89kts
08-Jan-19 12:13 34.340455 -119.812136 164 2651ft 99kts
08-Jan-19 12:14 34.315579 -119.799588 102 3339ft 97kts
08-Jan-19 12:15 34.317076 -119.768480 85 4053ft 93kts
08-Jan-19 12:16 34.315259 -119.737163 89 4742ft 92kts
08-Jan-19 12:17 34.312899 -119.703355 91 5015ft 111kts
08-Jan-19 12:18 34.310222 -119.665651 91 5000ft 113kts
08-Jan-19 12:19 34.307591 -119.627739 91 5000ft 112kts
08-Jan-19 12:20 34.304962 -119.589926 91 5000ft 112kts
08-Jan-19 12:21 34.302319 -119.552062 91 5000ft 112kts
08-Jan-19 12:22 34.299667 -119.514215 92 5006ft 113kts
08-Jan-19 12:23 34.296984 -119.476132 92 5008ft 114kts
08-Jan-19 12:24 34.294277 -119.437901 92 5009ft 114kts
08-Jan-19 12:25 34.291557 -119.399620 93 5008ft 114kts
08-Jan-19 12:26 34.288827 -119.361394 93 5008ft 114kts
08-Jan-19 12:27 34.286082 -119.323112 93 5008ft 114kts
08-Jan-19 12:28 34.283322 -119.284784 93 5009ft 114kts
08-Jan-19 12:29 34.280551 -119.246375 93 5009ft 114kts
08-Jan-19 12:30 34.277473 -119.204123 94 4948ft 138kts
08-Jan-19 12:31 34.274572 -119.164558 93 4998ft 107kts
08-Jan-19 12:32 34.272035 -119.129218 93 5009ft 105kts
08-Jan-19 12:33 34.269438 -119.093783 93 5009ft 105kts
08-Jan-19 12:34 34.266835 -119.058595 91 5012ft 105kts
08-Jan-19 12:35 34.264228 -119.023455 91 5011ft 104kts
08-Jan-19 12:36 34.261275 -118.988356 93 5013ft 104kts
08-Jan-19 12:37 34.258238 -118.953212 92 5011ft 105kts
08-Jan-19 12:38 34.255414 -118.918106 92 5009ft 105kts
08-Jan-19 12:39 34.252625 -118.882887 97 5008ft 105kts
08-Jan-19 12:40 34.244962 -118.848523 103 5010ft 106kts
08-Jan-19 12:41 34.237139 -118.814216 103 5015ft 105kts
08-Jan-19 12:42 34.229286 -118.779950 103 5011ft 105kts
08-Jan-19 12:43 34.221474 -118.745661 103 4945ft 106kts
08-Jan-19 12:44 34.213705 -118.711103 103 4328ft 105kts
08-Jan-19 12:45 34.206298 -118.677681 102 3993ft 96kts
08-Jan-19 12:46 34.202179 -118.647174 90 4010ft 90kts
08-Jan-19 12:47 34.200831 -118.616737 88 4010ft 90kts
08-Jan-19 12:48 34.200652 -118.585626 86 3863ft 99kts
08-Jan-19 12:49 34.200661 -118.552558 88 3565ft 98kts
08-Jan-19 12:50 34.199999 -118.519692 88 3284ft 98kts
08-Jan-19 12:51 34.199468 -118.485215 87 2845ft 102kts
08-Jan-19 12:52 34.199274 -118.455563 92 2135ft 77kts
08-Jan-19 12:54 34.198900 -118.431093 88 1812ft 71kts
08-Jan-19 12:55 34.198358 -118.406722 90 1468ft 77kts
08-Jan-19 12:56 34.198069 -118.383505 88 1071ft 60kts
08-Jan-19 12:57 34.197882 -118.365122 91 781ft 22kts
08-Jan-19 12:58 34.197121 -118.364512 181 781ft 0kts
08-Jan-19 12:59 34.196725 -118.364652 243 781ft 2kts
08-Jan-19 13:00 34.195767 -118.365153 183 781ft 0kts

Navigation Log

Ident Type
Flight plan parsing failed, navigation log unavailable